NCAR-RAP Real-Time Weather Data

Output produced by METARs form (19 June 2019  11:58 UTC)
found at http://weather.rap.ucar.edu/surface/
 
Conditions at: KSPI observed 19 June 2019  11:52 UTC
Temperature: 20.6°C (69°F)
Dewpoint: 17.8°C (64°F) [RH = 84%]
Pressure (altimeter): 29.76 inches Hg (1007.9 mb)
[Sea-level pressure: 1007.2 mb]
Winds: from the E (80 degrees) at 6 MPH (5 knots; 2.6 m/s)
Visibility: 8 miles (13 km)
Ceiling: at least 12,000 feet AGL
Clouds: sky clear below 12,000 feet AGL
Present Weather: no significant weather observed at this time
KSPI 191152Z 08005KT 8SM CLR 21/18 A2976 RMK AO2 SLP072 T02060178 10206 20189 55008